sensor_id;sensor_type;location;lat;lon;timestamp;P1;durP1;ratioP1;P2;durP2;ratioP2
55700;SDS011;41604;43.142;20.512;2024-02-23T14:04:46;9.10;;;6.13;;
55700;SDS011;41604;43.142;20.512;2024-02-23T14:07:12;8.48;;;5.45;;
55700;SDS011;41604;43.142;20.512;2024-02-23T14:09:38;13.98;;;7.85;;
55700;SDS011;41604;43.142;20.512;2024-02-23T14:12:04;70.82;;;38.88;;
55700;SDS011;41604;43.142;20.512;2024-02-23T14:14:29;63.17;;;37.08;;
55700;SDS011;41604;43.142;20.512;2024-02-23T14:16:55;40.08;;;24.52;;
55700;SDS011;41604;43.142;20.512;2024-02-23T14:19:21;20.45;;;12.88;;
55700;SDS011;41604;43.142;20.512;2024-02-23T14:21:47;34.85;;;21.88;;
55700;SDS011;41604;43.142;20.512;2024-02-23T14:24:13;37.33;;;21.85;;
55700;SDS011;41604;43.142;20.512;2024-02-23T14:26:39;52.05;;;30.50;;
55700;SDS011;41604;43.142;20.512;2024-02-23T14:29:05;28.63;;;15.05;;
55700;SDS011;41604;43.142;20.512;2024-02-23T14:31:30;67.18;;;36.20;;
55700;SDS011;41604;43.142;20.512;2024-02-23T14:33:57;50.88;;;29.73;;
55700;SDS011;41604;43.142;20.512;2024-02-23T14:36:23;42.40;;;26.75;;
55700;SDS011;41604;43.142;20.512;2024-02-23T14:38:49;43.72;;;21.45;;
55700;SDS011;41604;43.142;20.512;2024-02-23T14:41:15;27.52;;;16.00;;
55700;SDS011;41604;43.142;20.512;2024-02-23T14:43:41;18.25;;;10.15;;
55700;SDS011;41604;43.142;20.512;2024-02-23T14:46:06;50.28;;;27.65;;
55700;SDS011;41604;43.142;20.512;2024-02-23T14:48:34;73.93;;;43.13;;
55700;SDS011;41604;43.142;20.512;2024-02-23T14:51:00;36.05;;;23.27;;
55700;SDS011;41604;43.142;20.512;2024-02-23T14:53:28;35.40;;;22.25;;
55700;SDS011;41604;43.142;20.512;2024-02-23T14:55:54;38.17;;;27.27;;
55700;SDS011;41604;43.142;20.512;2024-02-23T14:58:20;40.63;;;27.83;;
55700;SDS011;41604;43.142;20.512;2024-02-23T15:00:46;29.42;;;20.33;;
55700;SDS011;41604;43.142;20.512;2024-02-23T15:03:12;17.58;;;13.38;;
55700;SDS011;41604;43.142;20.512;2024-02-23T15:05:39;51.67;;;41.35;;
55700;SDS011;41604;43.142;20.512;2024-02-23T15:08:06;35.60;;;28.20;;
55700;SDS011;41604;43.142;20.512;2024-02-23T15:10:32;38.00;;;30.55;;
55700;SDS011;41604;43.142;20.512;2024-02-23T15:12:58;25.27;;;16.35;;
55700;SDS011;41604;43.142;20.512;2024-02-23T15:15:25;24.50;;;19.23;;
55700;SDS011;41604;43.142;20.512;2024-02-23T15:17:50;25.33;;;17.83;;
55700;SDS011;41604;43.142;20.512;2024-02-23T15:20:17;127.75;;;83.65;;
55700;SDS011;41604;43.142;20.512;2024-02-23T15:22:44;61.17;;;39.72;;
55700;SDS011;41604;43.142;20.512;2024-02-23T15:38:10;22.05;;;16.17;;
55700;SDS011;41604;43.142;20.512;2024-02-23T15:40:36;19.38;;;14.05;;
55700;SDS011;41604;43.142;20.512;2024-02-23T15:43:03;23.08;;;17.80;;
55700;SDS011;41604;43.142;20.512;2024-02-23T15:45:29;28.42;;;20.90;;
55700;SDS011;41604;43.142;20.512;2024-02-23T15:47:54;47.22;;;35.00;;
55700;SDS011;41604;43.142;20.512;2024-02-23T15:50:20;46.80;;;29.45;;
55700;SDS011;41604;43.142;20.512;2024-02-23T15:52:47;39.97;;;29.95;;
55700;SDS011;41604;43.142;20.512;2024-02-23T15:55:13;25.40;;;20.60;;
55700;SDS011;41604;43.142;20.512;2024-02-23T15:57:39;21.55;;;15.15;;
55700;SDS011;41604;43.142;20.512;2024-02-23T16:00:05;17.77;;;12.63;;
55700;SDS011;41604;43.142;20.512;2024-02-23T16:02:33;22.88;;;14.73;;
55700;SDS011;41604;43.142;20.512;2024-02-23T16:05:00;38.20;;;13.95;;
55700;SDS011;41604;43.142;20.512;2024-02-23T16:07:27;14.32;;;11.05;;
55700;SDS011;41604;43.142;20.512;2024-02-23T16:09:53;29.70;;;20.33;;
55700;SDS011;41604;43.142;20.512;2024-02-23T16:12:19;14.70;;;10.85;;
55700;SDS011;41604;43.142;20.512;2024-02-23T16:14:44;15.02;;;8.90;;
55700;SDS011;41604;43.142;20.512;2024-02-23T16:17:10;20.23;;;17.08;;
55700;SDS011;41604;43.142;20.512;2024-02-23T16:19:36;18.42;;;13.80;;
55700;SDS011;41604;43.142;20.512;2024-02-23T16:22:02;27.15;;;22.95;;
55700;SDS011;41604;43.142;20.512;2024-02-23T16:24:28;19.77;;;15.38;;
55700;SDS011;41604;43.142;20.512;2024-02-23T16:26:54;18.25;;;10.70;;
55700;SDS011;41604;43.142;20.512;2024-02-23T16:29:20;59.10;;;45.17;;
55700;SDS011;41604;43.142;20.512;2024-02-23T16:31:45;111.75;;;83.32;;
55700;SDS011;41604;43.142;20.512;2024-02-23T16:34:11;39.10;;;28.10;;
55700;SDS011;41604;43.142;20.512;2024-02-23T16:36:37;87.72;;;61.42;;
55700;SDS011;41604;43.142;20.512;2024-02-23T16:39:03;119.43;;;86.75;;
55700;SDS011;41604;43.142;20.512;2024-02-23T16:41:32;129.30;;;96.72;;
55700;SDS011;41604;43.142;20.512;2024-02-23T16:44:00;131.60;;;86.05;;
55700;SDS011;41604;43.142;20.512;2024-02-23T16:46:26;93.72;;;61.95;;
55700;SDS011;41604;43.142;20.512;2024-02-23T16:48:52;50.50;;;35.80;;
55700;SDS011;41604;43.142;20.512;2024-02-23T16:51:18;39.92;;;33.67;;
55700;SDS011;41604;43.142;20.512;2024-02-23T16:53:53;35.58;;;25.58;;
55700;SDS011;41604;43.142;20.512;2024-02-23T16:56:18;48.33;;;34.72;;
55700;SDS011;41604;43.142;20.512;2024-02-23T16:58:44;36.65;;;24.88;;
55700;SDS011;41604;43.142;20.512;2024-02-23T17:01:10;27.83;;;19.83;;
55700;SDS011;41604;43.142;20.512;2024-02-23T17:03:36;18.13;;;12.73;;
55700;SDS011;41604;43.142;20.512;2024-02-23T17:06:02;23.88;;;19.98;;
55700;SDS011;41604;43.142;20.512;2024-02-23T17:08:31;25.58;;;17.35;;
55700;SDS011;41604;43.142;20.512;2024-02-23T17:10:57;35.00;;;21.50;;
55700;SDS011;41604;43.142;20.512;2024-02-23T17:13:23;40.67;;;24.40;;
55700;SDS011;41604;43.142;20.512;2024-02-23T17:15:52;24.30;;;14.60;;
55700;SDS011;41604;43.142;20.512;2024-02-23T17:18:19;36.63;;;20.40;;
55700;SDS011;41604;43.142;20.512;2024-02-23T17:31:42;32.08;;;18.45;;
55700;SDS011;41604;43.142;20.512;2024-02-23T17:34:08;59.17;;;36.35;;
55700;SDS011;41604;43.142;20.512;2024-02-23T17:36:36;86.20;;;55.70;;
55700;SDS011;41604;43.142;20.512;2024-02-23T17:39:07;59.25;;;38.63;;
55700;SDS011;41604;43.142;20.512;2024-02-23T17:41:33;76.53;;;48.95;;
55700;SDS011;41604;43.142;20.512;2024-02-23T17:43:59;52.45;;;32.17;;
55700;SDS011;41604;43.142;20.512;2024-02-23T17:46:25;34.03;;;23.15;;
55700;SDS011;41604;43.142;20.512;2024-02-23T17:48:51;40.15;;;22.98;;
55700;SDS011;41604;43.142;20.512;2024-02-23T17:51:17;39.67;;;27.98;;
55700;SDS011;41604;43.142;20.512;2024-02-23T17:53:44;41.72;;;27.80;;
55700;SDS011;41604;43.142;20.512;2024-02-23T17:56:10;37.03;;;20.65;;
55700;SDS011;41604;43.142;20.512;2024-02-23T17:58:36;24.38;;;14.90;;
55700;SDS011;41604;43.142;20.512;2024-02-23T18:01:02;22.08;;;13.88;;
55700;SDS011;41604;43.142;20.512;2024-02-23T18:03:28;24.55;;;14.45;;
55700;SDS011;41604;43.142;20.512;2024-02-23T18:05:55;19.08;;;13.27;;
55700;SDS011;41604;43.142;20.512;2024-02-23T18:08:21;21.30;;;10.63;;
55700;SDS011;41604;43.142;20.512;2024-02-23T18:10:48;25.23;;;16.52;;
55700;SDS011;41604;43.142;20.512;2024-02-23T18:13:14;45.50;;;29.67;;
55700;SDS011;41604;43.142;20.512;2024-02-23T18:15:40;41.75;;;30.13;;
55700;SDS011;41604;43.142;20.512;2024-02-23T18:18:06;33.80;;;22.90;;
55700;SDS011;41604;43.142;20.512;2024-02-23T18:20:33;34.78;;;25.38;;
55700;SDS011;41604;43.142;20.512;2024-02-23T18:23:00;50.50;;;34.17;;
55700;SDS011;41604;43.142;20.512;2024-02-23T18:25:26;50.95;;;32.95;;
55700;SDS011;41604;43.142;20.512;2024-02-23T18:27:52;61.33;;;40.42;;
55700;SDS011;41604;43.142;20.512;2024-02-23T18:30:18;39.67;;;27.70;;
55700;SDS011;41604;43.142;20.512;2024-02-23T18:32:44;47.10;;;34.25;;
55700;SDS011;41604;43.142;20.512;2024-02-23T18:35:10;52.78;;;34.00;;
55700;SDS011;41604;43.142;20.512;2024-02-23T18:37:37;61.67;;;41.30;;
55700;SDS011;41604;43.142;20.512;2024-02-23T18:40:03;125.43;;;79.00;;
55700;SDS011;41604;43.142;20.512;2024-02-23T18:42:30;77.05;;;48.88;;
55700;SDS011;41604;43.142;20.512;2024-02-23T18:44:56;62.00;;;43.15;;
55700;SDS011;41604;43.142;20.512;2024-02-23T18:47:22;59.63;;;39.25;;
55700;SDS011;41604;43.142;20.512;2024-02-23T18:49:49;43.78;;;26.77;;
55700;SDS011;41604;43.142;20.512;2024-02-23T18:52:15;52.20;;;37.25;;
55700;SDS011;41604;43.142;20.512;2024-02-23T18:54:41;68.22;;;45.20;;
55700;SDS011;41604;43.142;20.512;2024-02-23T18:57:08;54.03;;;32.90;;
55700;SDS011;41604;43.142;20.512;2024-02-23T18:59:34;82.05;;;58.10;;
55700;SDS011;41604;43.142;20.512;2024-02-23T19:02:00;60.55;;;42.08;;
55700;SDS011;41604;43.142;20.512;2024-02-23T19:04:26;42.65;;;29.98;;
55700;SDS011;41604;43.142;20.512;2024-02-23T19:06:54;55.88;;;39.55;;
55700;SDS011;41604;43.142;20.512;2024-02-23T19:09:20;119.22;;;83.03;;
55700;SDS011;41604;43.142;20.512;2024-02-23T19:11:46;92.32;;;65.72;;
55700;SDS011;41604;43.142;20.512;2024-02-23T19:14:12;89.30;;;67.93;;
55700;SDS011;41604;43.142;20.512;2024-02-23T19:16:39;58.42;;;40.67;;
55700;SDS011;41604;43.142;20.512;2024-02-23T19:19:05;53.45;;;34.80;;
55700;SDS011;41604;43.142;20.512;2024-02-23T19:21:31;63.50;;;42.25;;
55700;SDS011;41604;43.142;20.512;2024-02-23T19:23:57;91.90;;;55.80;;
55700;SDS011;41604;43.142;20.512;2024-02-23T19:26:23;70.05;;;42.22;;
55700;SDS011;41604;43.142;20.512;2024-02-23T19:28:50;68.43;;;40.60;;
55700;SDS011;41604;43.142;20.512;2024-02-23T19:31:16;62.80;;;41.20;;
55700;SDS011;41604;43.142;20.512;2024-02-23T19:33:43;58.60;;;39.33;;
55700;SDS011;41604;43.142;20.512;2024-02-23T19:36:09;56.35;;;34.40;;
55700;SDS011;41604;43.142;20.512;2024-02-23T19:38:36;65.30;;;42.08;;
55700;SDS011;41604;43.142;20.512;2024-02-23T19:41:02;72.38;;;48.10;;
55700;SDS011;41604;43.142;20.512;2024-02-23T19:43:28;83.32;;;53.80;;
55700;SDS011;41604;43.142;20.512;2024-02-23T19:45:54;121.80;;;73.43;;
55700;SDS011;41604;43.142;20.512;2024-02-23T19:48:20;106.18;;;62.85;;
55700;SDS011;41604;43.142;20.512;2024-02-23T19:50:47;87.78;;;54.33;;
55700;SDS011;41604;43.142;20.512;2024-02-23T19:53:13;66.38;;;45.00;;
55700;SDS011;41604;43.142;20.512;2024-02-23T19:55:43;66.63;;;43.67;;
55700;SDS011;41604;43.142;20.512;2024-02-23T19:58:09;118.15;;;72.43;;
55700;SDS011;41604;43.142;20.512;2024-02-23T20:00:35;101.80;;;62.33;;
55700;SDS011;41604;43.142;20.512;2024-02-23T20:03:01;79.22;;;50.47;;
55700;SDS011;41604;43.142;20.512;2024-02-23T20:05:28;60.25;;;40.13;;
55700;SDS011;41604;43.142;20.512;2024-02-23T20:07:53;85.30;;;50.28;;
55700;SDS011;41604;43.142;20.512;2024-02-23T20:10:19;74.97;;;43.83;;
55700;SDS011;41604;43.142;20.512;2024-02-23T20:12:47;119.65;;;57.13;;
55700;SDS011;41604;43.142;20.512;2024-02-23T20:15:15;125.15;;;56.47;;
55700;SDS011;41604;43.142;20.512;2024-02-23T20:17:41;124.88;;;58.78;;
55700;SDS011;41604;43.142;20.512;2024-02-23T20:20:11;108.18;;;50.75;;
55700;SDS011;41604;43.142;20.512;2024-02-23T20:22:37;87.03;;;44.03;;
55700;SDS011;41604;43.142;20.512;2024-02-23T20:25:03;70.50;;;35.33;;
55700;SDS011;41604;43.142;20.512;2024-02-23T20:27:30;65.10;;;33.22;;
55700;SDS011;41604;43.142;20.512;2024-02-23T20:29:56;68.15;;;35.72;;
55700;SDS011;41604;43.142;20.512;2024-02-23T20:32:22;64.93;;;33.47;;
55700;SDS011;41604;43.142;20.512;2024-02-23T20:34:49;59.03;;;33.80;;
55700;SDS011;41604;43.142;20.512;2024-02-23T20:37:15;66.70;;;34.67;;
55700;SDS011;41604;43.142;20.512;2024-02-23T20:39:41;48.63;;;30.17;;
55700;SDS011;41604;43.142;20.512;2024-02-23T20:42:07;42.05;;;27.58;;
55700;SDS011;41604;43.142;20.512;2024-02-23T20:44:35;47.42;;;29.02;;
55700;SDS011;41604;43.142;20.512;2024-02-23T20:47:01;38.40;;;24.48;;
55700;SDS011;41604;43.142;20.512;2024-02-23T20:49:27;46.50;;;28.90;;
55700;SDS011;41604;43.142;20.512;2024-02-23T20:51:55;44.22;;;29.25;;
55700;SDS011;41604;43.142;20.512;2024-02-23T20:54:21;53.78;;;31.23;;
55700;SDS011;41604;43.142;20.512;2024-02-23T20:56:48;47.15;;;29.52;;
55700;SDS011;41604;43.142;20.512;2024-02-23T20:59:14;49.20;;;30.67;;
55700;SDS011;41604;43.142;20.512;2024-02-23T21:01:40;63.33;;;37.47;;
55700;SDS011;41604;43.142;20.512;2024-02-23T21:04:06;50.90;;;33.78;;
55700;SDS011;41604;43.142;20.512;2024-02-23T21:06:32;53.05;;;32.55;;
55700;SDS011;41604;43.142;20.512;2024-02-23T21:08:59;50.38;;;30.67;;
55700;SDS011;41604;43.142;20.512;2024-02-23T21:11:25;75.63;;;41.22;;
55700;SDS011;41604;43.142;20.512;2024-02-23T21:13:52;80.07;;;47.65;;
55700;SDS011;41604;43.142;20.512;2024-02-23T21:16:19;60.75;;;37.85;;
55700;SDS011;41604;43.142;20.512;2024-02-23T21:18:45;66.65;;;43.10;;
55700;SDS011;41604;43.142;20.512;2024-02-23T21:21:11;72.10;;;51.08;;
55700;SDS011;41604;43.142;20.512;2024-02-23T21:23:37;97.93;;;62.22;;
55700;SDS011;41604;43.142;20.512;2024-02-23T21:26:03;93.53;;;58.55;;
55700;SDS011;41604;43.142;20.512;2024-02-23T21:28:29;79.32;;;53.30;;
55700;SDS011;41604;43.142;20.512;2024-02-23T21:30:56;69.55;;;47.97;;
55700;SDS011;41604;43.142;20.512;2024-02-23T21:33:28;96.70;;;62.08;;
55700;SDS011;41604;43.142;20.512;2024-02-23T21:35:55;74.13;;;51.13;;
55700;SDS011;41604;43.142;20.512;2024-02-23T21:38:21;67.70;;;47.33;;
55700;SDS011;41604;43.142;20.512;2024-02-23T21:40:47;77.25;;;47.88;;
55700;SDS011;41604;43.142;20.512;2024-02-23T21:43:14;87.55;;;54.17;;
55700;SDS011;41604;43.142;20.512;2024-02-23T21:45:40;63.95;;;41.55;;
55700;SDS011;41604;43.142;20.512;2024-02-23T21:48:06;84.90;;;50.47;;
55700;SDS011;41604;43.142;20.512;2024-02-23T21:50:32;90.43;;;55.13;;
55700;SDS011;41604;43.142;20.512;2024-02-23T21:52:58;67.32;;;41.15;;
55700;SDS011;41604;43.142;20.512;2024-02-23T21:55:24;56.38;;;35.53;;
55700;SDS011;41604;43.142;20.512;2024-02-23T21:57:52;60.97;;;38.25;;
55700;SDS011;41604;43.142;20.512;2024-02-23T22:00:18;114.82;;;64.03;;
55700;SDS011;41604;43.142;20.512;2024-02-23T22:02:44;53.17;;;32.40;;
55700;SDS011;41604;43.142;20.512;2024-02-23T22:05:10;58.92;;;36.03;;
55700;SDS011;41604;43.142;20.512;2024-02-23T22:07:36;101.13;;;62.92;;
55700;SDS011;41604;43.142;20.512;2024-02-23T22:10:02;79.43;;;45.03;;
55700;SDS011;41604;43.142;20.512;2024-02-23T22:12:28;62.88;;;37.30;;
55700;SDS011;41604;43.142;20.512;2024-02-23T22:14:56;98.85;;;60.03;;
55700;SDS011;41604;43.142;20.512;2024-02-23T22:17:25;105.43;;;68.82;;
55700;SDS011;41604;43.142;20.512;2024-02-23T22:19:51;148.40;;;92.57;;
55700;SDS011;41604;43.142;20.512;2024-02-23T22:22:17;141.05;;;81.20;;
55700;SDS011;41604;43.142;20.512;2024-02-23T22:24:43;80.57;;;50.45;;
55700;SDS011;41604;43.142;20.512;2024-02-23T22:27:09;88.43;;;51.40;;
55700;SDS011;41604;43.142;20.512;2024-02-23T22:29:35;117.57;;;72.18;;
55700;SDS011;41604;43.142;20.512;2024-02-23T22:32:00;84.38;;;48.10;;
55700;SDS011;41604;43.142;20.512;2024-02-23T22:34:26;75.57;;;45.00;;
55700;SDS011;41604;43.142;20.512;2024-02-23T22:36:52;48.83;;;29.45;;
55700;SDS011;41604;43.142;20.512;2024-02-23T22:39:18;42.80;;;25.45;;
55700;SDS011;41604;43.142;20.512;2024-02-23T22:41:44;60.35;;;33.85;;
55700;SDS011;41604;43.142;20.512;2024-02-23T22:44:10;54.53;;;33.58;;
55700;SDS011;41604;43.142;20.512;2024-02-23T22:46:35;47.95;;;29.75;;
55700;SDS011;41604;43.142;20.512;2024-02-23T22:49:01;44.65;;;27.85;;
55700;SDS011;41604;43.142;20.512;2024-02-23T22:51:27;42.88;;;25.58;;
55700;SDS011;41604;43.142;20.512;2024-02-23T22:53:53;52.95;;;30.52;;
55700;SDS011;41604;43.142;20.512;2024-02-23T22:56:18;58.72;;;33.70;;
55700;SDS011;41604;43.142;20.512;2024-02-23T22:58:44;97.65;;;56.83;;
55700;SDS011;41604;43.142;20.512;2024-02-23T23:01:10;89.15;;;54.83;;
55700;SDS011;41604;43.142;20.512;2024-02-23T23:03:36;102.45;;;64.22;;
55700;SDS011;41604;43.142;20.512;2024-02-23T23:06:02;76.63;;;49.40;;
55700;SDS011;41604;43.142;20.512;2024-02-23T23:08:28;60.35;;;36.72;;
55700;SDS011;41604;43.142;20.512;2024-02-23T23:10:54;49.17;;;29.23;;
55700;SDS011;41604;43.142;20.512;2024-02-23T23:13:20;35.35;;;20.88;;
55700;SDS011;41604;43.142;20.512;2024-02-23T23:15:46;35.35;;;23.27;;
55700;SDS011;41604;43.142;20.512;2024-02-23T23:18:12;60.20;;;35.55;;
55700;SDS011;41604;43.142;20.512;2024-02-23T23:20:38;63.63;;;34.38;;
55700;SDS011;41604;43.142;20.512;2024-02-23T23:23:04;75.10;;;45.63;;
55700;SDS011;41604;43.142;20.512;2024-02-23T23:25:29;51.22;;;31.40;;
55700;SDS011;41604;43.142;20.512;2024-02-23T23:27:58;50.33;;;29.92;;
55700;SDS011;41604;43.142;20.512;2024-02-23T23:30:23;48.83;;;29.98;;
55700;SDS011;41604;43.142;20.512;2024-02-23T23:32:49;69.68;;;40.05;;
55700;SDS011;41604;43.142;20.512;2024-02-23T23:35:15;65.82;;;40.17;;
55700;SDS011;41604;43.142;20.512;2024-02-23T23:37:41;91.70;;;64.28;;
55700;SDS011;41604;43.142;20.512;2024-02-23T23:40:07;80.65;;;55.03;;
55700;SDS011;41604;43.142;20.512;2024-02-23T23:42:33;75.28;;;42.88;;
55700;SDS011;41604;43.142;20.512;2024-02-23T23:44:59;73.25;;;46.08;;
55700;SDS011;41604;43.142;20.512;2024-02-23T23:47:26;73.63;;;45.10;;
55700;SDS011;41604;43.142;20.512;2024-02-23T23:49:52;65.80;;;39.35;;
55700;SDS011;41604;43.142;20.512;2024-02-23T23:52:18;57.85;;;37.30;;
55700;SDS011;41604;43.142;20.512;2024-02-23T23:54:43;75.93;;;49.10;;
55700;SDS011;41604;43.142;20.512;2024-02-23T23:57:09;53.72;;;37.28;;
55700;SDS011;41604;43.142;20.512;2024-02-23T23:59:35;57.90;;;37.28;;
